Time;durP1;ratioP1;P1;durP2;ratioP2;P2;SDS_P1;SDS_P2;PMS_P1;PMS_P2;Temp;Humidity;BMP_temperature;BMP_pressure;BME280_temperature;BME280_humidity;BME280_pressure;Samples;Min_cycle;Max_cycle;Signal;HPM_P1;HPM_P2
2024/03/12 00:00:43;;;;;;;68.03;25.80;;;7.30;99.90;;;;;;5008431;28;20651;-61
2024/03/12 00:03:12;;;;;;;69.60;26.53;;;7.30;99.90;;;;;;5009813;28;20594;-62
2024/03/12 00:05:41;;;;;;;67.07;26.17;;;7.30;99.90;;;;;;5010071;28;20190;-63
2024/03/12 00:08:09;;;;;;;67.80;26.33;;;7.30;99.90;;;;;;5015767;28;20218;-62
2024/03/12 00:10:38;;;;;;;69.37;27.50;;;7.20;99.90;;;;;;5009293;28;20263;-62
2024/03/12 00:13:09;;;;;;;67.17;25.97;;;7.30;99.90;;;;;;5009136;28;20218;-61
2024/03/12 00:15:39;;;;;;;64.90;26.30;;;7.30;99.90;;;;;;5011422;28;20214;-62
2024/03/12 00:18:08;;;;;;;67.37;27.53;;;7.20;99.90;;;;;;5011332;28;20252;-62
2024/03/12 00:20:39;;;;;;;72.90;26.07;;;7.20;99.90;;;;;;5010040;28;20248;-62
2024/03/12 00:23:07;;;;;;;62.60;26.33;;;7.20;99.90;;;;;;5008465;28;20205;-62
2024/03/12 00:25:37;;;;;;;66.30;26.23;;;7.20;99.90;;;;;;5010778;28;20608;-62
2024/03/12 00:28:08;;;;;;;67.77;26.37;;;7.20;99.90;;;;;;5008111;28;20566;-62
2024/03/12 00:30:40;;;;;;;63.03;25.53;;;7.20;99.90;;;;;;5025359;28;20365;-62
2024/03/12 00:33:11;;;;;;;61.53;24.93;;;7.20;99.90;;;;;;5008260;28;20684;-63
2024/03/12 00:35:42;;;;;;;72.90;26.93;;;7.30;99.90;;;;;;5010373;28;20198;-62
2024/03/12 00:38:12;;;;;;;67.37;26.87;;;7.20;99.90;;;;;;5012041;28;20193;-62
2024/03/12 00:40:42;;;;;;;69.63;27.67;;;7.20;99.90;;;;;;5008716;28;20596;-62
2024/03/12 00:43:11;;;;;;;67.83;26.27;;;7.20;99.90;;;;;;5011430;28;20313;-62
2024/03/12 00:45:41;;;;;;;69.97;28.33;;;7.20;99.90;;;;;;5011294;28;20226;-62
2024/03/12 00:48:14;;;;;;;60.77;27.10;;;7.20;99.90;;;;;;5009839;28;20225;-62
2024/03/12 00:50:45;;;;;;;64.30;27.23;;;7.20;99.90;;;;;;5007497;28;20209;-62
2024/03/12 00:53:14;;;;;;;69.37;27.63;;;7.20;99.90;;;;;;5011318;28;20194;-62
2024/03/12 00:55:47;;;;;;;64.13;26.27;;;7.20;99.90;;;;;;5010233;28;20224;-62
2024/03/12 00:58:19;;;;;;;71.10;27.80;;;7.20;99.90;;;;;;5009175;28;20711;-62
2024/03/12 01:00:49;;;;;;;64.90;27.00;;;7.20;99.90;;;;;;5009273;28;20558;-62
2024/03/12 01:03:19;;;;;;;69.73;28.50;;;7.20;99.90;;;;;;5011982;28;20679;-62
2024/03/12 01:05:48;;;;;;;66.80;27.10;;;7.20;99.90;;;;;;5008477;28;20600;-62
2024/03/12 01:08:17;;;;;;;59.00;26.80;;;7.20;99.90;;;;;;5011198;28;20210;-61
2024/03/12 01:10:45;;;;;;;64.07;26.77;;;7.20;99.90;;;;;;5011930;28;20234;-62
2024/03/12 01:13:13;;;;;;;63.93;26.97;;;7.20;99.90;;;;;;5012758;28;20276;-62
2024/03/12 01:15:42;;;;;;;71.77;27.07;;;7.20;99.90;;;;;;5014623;28;20233;-62
2024/03/12 01:18:10;;;;;;;66.90;26.30;;;7.20;99.90;;;;;;5011149;28;20216;-61
2024/03/12 01:20:40;;;;;;;64.53;25.67;;;7.20;99.90;;;;;;5015160;28;20283;-62
2024/03/12 01:23:09;;;;;;;65.10;27.47;;;7.20;99.90;;;;;;5016679;28;20240;-62
2024/03/12 01:25:41;;;;;;;65.43;27.37;;;7.20;99.90;;;;;;5015758;28;20213;-62
2024/03/12 01:28:12;;;;;;;57.77;26.40;;;7.10;99.90;;;;;;5016601;28;20221;-62
2024/03/12 01:30:42;;;;;;;66.97;27.73;;;7.10;99.90;;;;;;5015334;28;20221;-62
2024/03/12 01:33:11;;;;;;;72.30;27.60;;;7.10;99.90;;;;;;5013546;28;20680;-62
2024/03/12 01:35:40;;;;;;;76.90;29.13;;;7.10;99.90;;;;;;5014280;28;20537;-62
2024/03/12 01:38:11;;;;;;;68.47;27.37;;;7.10;99.90;;;;;;5016279;28;20186;-62
2024/03/12 01:40:41;;;;;;;73.60;29.10;;;7.10;99.90;;;;;;5014376;28;20249;-62
2024/03/12 01:43:12;;;;;;;69.70;30.13;;;7.10;99.90;;;;;;5014701;28;20268;-62
2024/03/12 01:45:42;;;;;;;68.53;28.23;;;7.10;99.90;;;;;;5011937;28;20223;-62
2024/03/12 01:48:11;;;;;;;74.67;28.03;;;7.10;99.90;;;;;;5013631;28;20700;-62
2024/03/12 01:50:42;;;;;;;80.93;29.83;;;7.10;99.90;;;;;;5011580;28;20198;-62
2024/03/12 01:53:10;;;;;;;78.13;27.77;;;7.10;99.90;;;;;;5015255;28;20182;-61
2024/03/12 01:55:42;;;;;;;68.83;29.47;;;7.10;99.90;;;;;;5014983;28;20300;-61
2024/03/12 01:58:15;;;;;;;77.07;29.10;;;7.10;99.90;;;;;;5014256;28;20300;-62
2024/03/12 02:00:44;;;;;;;69.87;29.30;;;7.10;99.90;;;;;;5013881;28;20221;-62
2024/03/12 02:03:13;;;;;;;79.17;28.67;;;7.10;99.90;;;;;;5018157;28;20346;-62
2024/03/12 02:05:43;;;;;;;67.13;28.17;;;7.10;99.90;;;;;;5011720;28;20198;-62
2024/03/12 02:08:12;;;;;;;74.40;28.67;;;7.10;99.90;;;;;;5013148;28;20217;-61
2024/03/12 02:10:40;;;;;;;76.60;28.43;;;7.10;99.90;;;;;;5013661;28;20237;-62
2024/03/12 02:13:09;;;;;;;67.80;28.17;;;7.10;99.90;;;;;;5012695;28;20222;-62
2024/03/12 02:15:38;;;;;;;68.93;28.93;;;7.10;99.90;;;;;;5012906;28;20230;-62
2024/03/12 02:18:09;;;;;;;72.67;29.40;;;7.10;99.90;;;;;;5012604;28;20228;-62
2024/03/12 02:20:38;;;;;;;70.70;27.93;;;7.10;99.90;;;;;;5011763;28;20561;-62
2024/03/12 02:23:08;;;;;;;77.83;28.53;;;7.10;99.90;;;;;;5026035;28;20629;-61
2024/03/12 02:25:37;;;;;;;69.53;29.80;;;7.00;99.90;;;;;;5008016;28;20254;-62
2024/03/12 02:28:06;;;;;;;59.47;26.73;;;7.00;99.90;;;;;;5011217;28;20214;-62
2024/03/12 02:30:35;;;;;;;79.07;28.90;;;7.00;99.90;;;;;;5009083;28;20272;-62
2024/03/12 02:33:04;;;;;;;75.00;28.83;;;7.00;99.90;;;;;;5009053;28;20226;-61
2024/03/12 02:35:34;;;;;;;68.50;29.40;;;7.00;99.90;;;;;;5009247;28;20194;-62
2024/03/12 02:38:05;;;;;;;68.07;28.47;;;7.10;99.90;;;;;;5010394;28;20969;-62
2024/03/12 02:40:33;;;;;;;73.37;28.70;;;7.10;99.90;;;;;;5005266;28;20232;-62
2024/03/12 02:43:03;;;;;;;65.50;28.50;;;7.10;99.90;;;;;;5010111;28;20336;-63
2024/03/12 02:45:32;;;;;;;77.17;29.03;;;7.00;99.90;;;;;;5011666;28;20222;-62
2024/03/12 02:48:03;;;;;;;68.57;29.00;;;7.10;99.90;;;;;;5014620;28;20679;-62
2024/03/12 02:50:32;;;;;;;69.83;27.63;;;7.10;99.90;;;;;;5013209;28;20586;-61
2024/03/12 02:53:00;;;;;;;80.93;29.40;;;7.10;99.90;;;;;;5016543;28;20197;-62
2024/03/12 02:55:29;;;;;;;72.93;29.47;;;7.00;99.90;;;;;;5012831;28;20595;-63
2024/03/12 02:57:57;;;;;;;67.23;28.67;;;7.00;99.90;;;;;;5009897;28;20676;-61
2024/03/12 03:00:45;;;;;;;71.70;29.27;;;7.00;99.90;;;;;;5012370;28;20233;-63
2024/03/12 03:03:13;;;;;;;70.97;28.70;;;7.00;99.90;;;;;;5013314;28;20230;-62
2024/03/12 03:05:43;;;;;;;67.33;28.03;;;7.00;99.90;;;;;;5013951;28;20198;-63
2024/03/12 03:08:12;;;;;;;73.93;28.37;;;7.00;99.90;;;;;;5026398;28;20249;-63
2024/03/12 03:10:40;;;;;;;68.43;27.13;;;7.00;99.90;;;;;;5013484;28;21015;-62
2024/03/12 03:13:08;;;;;;;67.20;27.47;;;7.00;99.90;;;;;;5011688;28;20313;-61
2024/03/12 03:15:37;;;;;;;61.33;27.47;;;7.00;99.90;;;;;;5012769;28;20613;-61
2024/03/12 03:18:08;;;;;;;68.97;28.73;;;7.00;99.90;;;;;;5011115;28;20210;-62
2024/03/12 03:20:36;;;;;;;60.80;26.97;;;7.00;99.90;;;;;;5011839;28;20208;-62
2024/03/12 03:23:05;;;;;;;74.73;28.13;;;7.00;99.90;;;;;;5012861;28;20191;-62
2024/03/12 03:25:33;;;;;;;61.50;25.87;;;7.00;99.90;;;;;;5009895;28;20246;-62
2024/03/12 03:28:01;;;;;;;59.80;25.33;;;7.00;99.90;;;;;;5017770;28;20727;-62
2024/03/12 03:30:30;;;;;;;66.27;25.23;;;7.00;99.90;;;;;;5011553;28;20221;-62
2024/03/12 03:32:58;;;;;;;63.57;26.70;;;7.00;99.90;;;;;;5008323;28;20322;-62
2024/03/12 03:35:29;;;;;;;66.80;26.60;;;7.00;99.90;;;;;;5008167;28;20205;-62
2024/03/12 03:37:59;;;;;;;62.87;26.23;;;7.00;99.90;;;;;;5015548;28;20193;-62
2024/03/12 03:40:28;;;;;;;58.47;24.57;;;7.00;99.90;;;;;;5008243;28;20280;-62
2024/03/12 03:42:56;;;;;;;68.43;27.33;;;7.00;99.90;;;;;;5011698;28;20276;-62
2024/03/12 03:45:25;;;;;;;61.97;26.13;;;7.00;99.90;;;;;;5010215;28;20224;-62
2024/03/12 03:47:54;;;;;;;56.73;24.97;;;7.00;99.90;;;;;;5011790;28;20225;-62
2024/03/12 03:50:22;;;;;;;55.47;24.73;;;7.00;99.90;;;;;;5043937;28;20197;-62
2024/03/12 03:52:53;;;;;;;65.97;26.37;;;6.90;99.90;;;;;;5009879;28;20699;-62
2024/03/12 03:55:23;;;;;;;65.20;26.47;;;6.90;99.90;;;;;;5009308;28;20228;-62
2024/03/12 03:57:52;;;;;;;59.43;26.67;;;6.90;99.90;;;;;;5011773;28;20214;-62
2024/03/12 04:00:23;;;;;;;58.73;25.63;;;6.80;99.90;;;;;;5015029;28;20234;-61
2024/03/12 04:02:54;;;;;;;63.73;24.97;;;6.80;99.90;;;;;;5012119;28;20242;-62
2024/03/12 04:05:22;;;;;;;69.07;26.33;;;6.80;99.90;;;;;;5011152;28;20190;-62
2024/03/12 04:07:54;;;;;;;61.17;26.63;;;6.80;99.90;;;;;;5040758;28;20581;-62
2024/03/12 04:10:23;;;;;;;63.03;25.70;;;6.80;99.90;;;;;;5011747;28;20779;-61
2024/03/12 04:12:55;;;;;;;68.77;26.97;;;6.90;99.90;;;;;;5007888;28;20214;-62
2024/03/12 04:15:28;;;;;;;61.93;26.50;;;6.80;99.90;;;;;;5010949;28;20729;-63
2024/03/12 04:17:57;;;;;;;67.67;28.03;;;6.80;99.90;;;;;;5011318;28;20579;-62
2024/03/12 04:20:28;;;;;;;69.63;26.27;;;6.70;99.90;;;;;;5012264;28;20194;-62
2024/03/12 04:22:58;;;;;;;63.00;26.47;;;6.60;99.90;;;;;;5010907;28;20197;-61
2024/03/12 04:25:28;;;;;;;68.53;26.63;;;6.50;99.90;;;;;;5012028;28;20681;-62
2024/03/12 04:27:56;;;;;;;72.83;27.23;;;6.50;99.90;;;;;;5010653;28;20295;-62
2024/03/12 04:30:25;;;;;;;67.40;28.00;;;6.50;99.90;;;;;;5011548;28;20218;-62
2024/03/12 04:32:53;;;;;;;70.50;27.50;;;6.50;99.90;;;;;;5012476;28;20218;-61
2024/03/12 04:35:22;;;;;;;62.37;26.53;;;6.50;99.90;;;;;;5012444;28;20586;-62
2024/03/12 04:37:50;;;;;;;65.77;28.33;;;6.50;99.90;;;;;;5025514;28;20222;-62
2024/03/12 04:40:22;;;;;;;64.87;27.80;;;6.50;99.90;;;;;;5008979;28;20228;-62
2024/03/12 04:42:53;;;;;;;75.83;28.57;;;6.50;99.90;;;;;;5005087;28;20229;-62
2024/03/12 04:45:22;;;;;;;71.20;27.67;;;6.50;99.90;;;;;;5009489;28;20305;-62
2024/03/12 04:47:50;;;;;;;70.80;28.87;;;6.50;99.90;;;;;;5013306;28;20304;-62
2024/03/12 04:50:22;;;;;;;66.17;28.10;;;6.40;99.90;;;;;;5017078;28;20212;-61
2024/03/12 04:52:51;;;;;;;68.60;29.23;;;6.50;99.90;;;;;;5012281;28;20225;-62
2024/03/12 04:55:21;;;;;;;72.83;27.70;;;6.50;99.90;;;;;;5009503;28;20226;-62
2024/03/12 04:57:50;;;;;;;83.57;29.87;;;6.50;99.90;;;;;;5009135;28;20241;-62
2024/03/12 05:00:19;;;;;;;72.33;28.67;;;6.40;99.90;;;;;;5012203;28;20229;-62
2024/03/12 05:02:49;;;;;;;70.93;30.13;;;6.40;99.90;;;;;;5007345;28;20613;-62
2024/03/12 05:05:19;;;;;;;72.20;29.63;;;6.50;99.90;;;;;;5016390;28;20244;-62
2024/03/12 05:07:48;;;;;;;69.80;29.40;;;6.50;99.90;;;;;;5011221;28;20305;-62
2024/03/12 05:10:17;;;;;;;75.53;29.50;;;6.50;99.90;;;;;;5010721;28;20312;-63
2024/03/12 05:12:50;;;;;;;74.07;30.20;;;6.50;99.90;;;;;;5011148;28;20328;-62
2024/03/12 05:15:19;;;;;;;81.60;30.83;;;6.50;99.90;;;;;;5008276;28;20695;-62
2024/03/12 05:17:49;;;;;;;79.80;31.03;;;6.50;99.90;;;;;;5010440;28;20300;-62
2024/03/12 05:20:18;;;;;;;73.87;30.57;;;6.50;99.90;;;;;;5011180;28;20190;-62
2024/03/12 05:22:47;;;;;;;83.67;31.27;;;6.50;99.90;;;;;;5008282;28;20252;-62
2024/03/12 05:25:22;;;;;;;70.63;29.23;;;6.50;99.90;;;;;;5010234;28;20222;-62
2024/03/12 05:27:53;;;;;;;75.97;28.83;;;6.40;99.90;;;;;;5010800;28;20217;-62
2024/03/12 05:30:23;;;;;;;86.83;32.20;;;6.40;99.90;;;;;;5011186;28;20419;-63
2024/03/12 05:32:53;;;;;;;76.67;31.20;;;6.40;99.90;;;;;;5010797;28;20218;-62
2024/03/12 05:35:22;;;;;;;86.27;31.20;;;6.40;99.90;;;;;;5011143;28;20654;-63
2024/03/12 05:38:03;;;;;;;78.67;31.83;;;6.40;99.90;;;;;;5011434;28;20229;-62
2024/03/12 05:40:42;;;;;;;80.37;31.40;;;6.40;99.90;;;;;;5012709;28;20214;-62
2024/03/12 05:48:49;;;;;;;79.27;31.57;;;6.40;99.90;;;;;;5008029;28;20237;-61
2024/03/12 05:51:19;;;;;;;75.23;30.90;;;6.40;99.90;;;;;;5009435;28;20242;-62
2024/03/12 05:53:49;;;;;;;73.17;29.87;;;6.40;99.90;;;;;;5012992;28;20225;-62
2024/03/12 05:56:19;;;;;;;76.77;31.03;;;6.40;99.90;;;;;;5010395;28;20198;-62
2024/03/12 05:58:50;;;;;;;75.60;31.13;;;6.30;99.90;;;;;;5014215;28;20700;-62
2024/03/12 06:01:18;;;;;;;75.67;30.87;;;6.30;99.90;;;;;;5010536;28;20569;-62
2024/03/12 06:03:47;;;;;;;79.60;30.00;;;6.30;99.90;;;;;;5013302;28;20218;-62
2024/03/12 06:06:15;;;;;;;83.03;31.40;;;6.30;99.90;;;;;;5011756;28;20677;-62
2024/03/12 06:08:44;;;;;;;77.60;30.27;;;6.20;99.90;;;;;;5017397;28;20202;-62
2024/03/12 06:11:13;;;;;;;76.47;31.00;;;6.20;99.90;;;;;;5013044;28;20234;-62
2024/03/12 06:13:42;;;;;;;74.00;30.50;;;6.20;99.90;;;;;;5018713;28;20229;-62
2024/03/12 06:16:12;;;;;;;89.43;31.83;;;6.20;99.90;;;;;;5013038;28;20308;-62
2024/03/12 06:18:40;;;;;;;77.00;30.67;;;6.20;99.90;;;;;;5013722;28;20214;-62
2024/03/12 06:21:09;;;;;;;76.43;31.33;;;6.20;99.90;;;;;;5012516;28;20222;-62
2024/03/12 06:23:37;;;;;;;88.80;33.07;;;6.20;99.90;;;;;;5013035;28;20190;-62
2024/03/12 06:26:06;;;;;;;76.83;30.87;;;6.20;99.90;;;;;;5013850;28;20726;-62
2024/03/12 06:28:35;;;;;;;77.73;31.90;;;6.20;99.90;;;;;;5013469;28;20228;-62
2024/03/12 06:31:04;;;;;;;80.50;32.20;;;6.30;99.90;;;;;;5014416;28;20221;-62
2024/03/12 06:33:38;;;;;;;82.67;33.03;;;6.20;99.90;;;;;;5014130;28;20309;-62
2024/03/12 06:36:07;;;;;;;71.43;30.30;;;6.30;99.90;;;;;;5013571;28;20229;-61
2024/03/12 06:38:36;;;;;;;79.63;32.00;;;6.40;99.90;;;;;;5013632;28;20283;-62
2024/03/12 06:41:07;;;;;;;83.80;32.57;;;6.40;99.90;;;;;;5010225;28;20641;-62
2024/03/12 06:43:40;;;;;;;85.53;31.93;;;6.50;99.90;;;;;;5010625;28;20279;-62
2024/03/12 06:46:09;;;;;;;77.30;32.20;;;6.50;99.90;;;;;;5014289;28;20218;-62
2024/03/12 06:48:40;;;;;;;75.57;31.70;;;6.50;99.90;;;;;;5011820;28;20218;-62
2024/03/12 06:51:08;;;;;;;77.50;31.70;;;6.50;99.90;;;;;;5008115;28;20228;-61
2024/03/12 06:53:37;;;;;;;78.13;30.67;;;6.50;99.90;;;;;;5011494;28;20221;-63
2024/03/12 06:56:06;;;;;;;74.10;31.03;;;6.50;99.90;;;;;;5013385;28;20178;-62
2024/03/12 06:58:39;;;;;;;71.30;31.43;;;6.60;99.90;;;;;;5013020;28;20241;-62
2024/03/12 07:01:09;;;;;;;79.30;31.17;;;6.60;99.90;;;;;;5007942;28;20565;-62
2024/03/12 07:03:40;;;;;;;74.73;30.33;;;6.70;99.90;;;;;;5012114;28;20256;-61
2024/03/12 07:06:08;;;;;;;74.10;31.23;;;6.70;99.90;;;;;;5011425;28;20650;-62
2024/03/12 07:08:39;;;;;;;74.33;30.73;;;6.70;99.90;;;;;;5006683;28;20236;-62
2024/03/12 07:11:10;;;;;;;67.23;30.07;;;6.70;99.90;;;;;;5012966;28;20284;-62
2024/03/12 07:13:39;;;;;;;76.53;31.30;;;6.70;99.90;;;;;;5009951;28;20279;-62
2024/03/12 07:16:10;;;;;;;73.57;29.80;;;6.70;99.90;;;;;;5013532;28;20233;-62
2024/03/12 07:18:40;;;;;;;74.77;29.63;;;6.80;99.90;;;;;;5013925;28;20229;-62
2024/03/12 07:21:09;;;;;;;67.07;31.03;;;6.80;99.90;;;;;;5017760;28;20246;-62
2024/03/12 07:23:38;;;;;;;70.83;30.70;;;6.80;99.90;;;;;;5004862;28;20536;-62
2024/03/12 07:26:06;;;;;;;72.70;30.43;;;6.80;99.90;;;;;;5009140;28;20649;-62
2024/03/12 07:28:35;;;;;;;72.83;29.80;;;6.80;99.90;;;;;;5011480;28;20297;-62
2024/03/12 07:31:04;;;;;;;79.87;30.53;;;6.80;99.90;;;;;;5012024;28;20221;-62
2024/03/12 07:33:32;;;;;;;74.63;31.87;;;6.80;99.90;;;;;;5007607;28;20245;-62
2024/03/12 07:36:04;;;;;;;71.20;31.20;;;6.80;99.90;;;;;;5010711;28;20218;-63
2024/03/12 07:38:33;;;;;;;64.00;28.87;;;6.90;99.90;;;;;;5010091;28;20186;-62
2024/03/12 07:41:02;;;;;;;70.43;30.77;;;7.00;99.90;;;;;;5013756;28;20272;-62
2024/03/12 07:43:30;;;;;;;64.77;30.23;;;7.00;99.90;;;;;;5012939;28;20253;-62
2024/03/12 07:45:58;;;;;;;71.97;29.97;;;7.00;99.90;;;;;;5008354;28;20229;-63
2024/03/12 07:48:27;;;;;;;62.63;28.27;;;7.00;99.90;;;;;;5010581;28;20229;-62
2024/03/12 07:50:56;;;;;;;65.80;29.90;;;7.00;99.90;;;;;;5012915;28;20256;-62
2024/03/12 07:53:29;;;;;;;67.53;29.47;;;7.00;99.90;;;;;;5003424;28;20198;-62
2024/03/12 07:56:00;;;;;;;66.40;30.57;;;7.10;99.90;;;;;;5012806;28;20186;-62
2024/03/12 07:58:29;;;;;;;67.20;29.17;;;7.20;99.90;;;;;;5014361;28;20228;-62
2024/03/12 08:00:58;;;;;;;61.80;30.63;;;7.20;99.90;;;;;;5011982;28;20756;-62
2024/03/12 08:03:27;;;;;;;66.37;30.00;;;7.20;99.90;;;;;;5010515;28;20222;-62
2024/03/12 08:05:56;;;;;;;62.83;28.77;;;7.30;99.90;;;;;;5015103;28;20227;-62
2024/03/12 08:08:25;;;;;;;64.67;30.10;;;7.30;99.90;;;;;;5013071;28;20332;-62
2024/03/12 08:10:57;;;;;;;62.50;29.47;;;7.30;99.90;;;;;;5010818;28;20287;-63
2024/03/12 08:13:26;;;;;;;71.03;30.83;;;7.30;99.90;;;;;;5012053;28;20217;-62
2024/03/12 08:15:54;;;;;;;67.07;29.80;;;7.30;99.90;;;;;;5009436;28;20245;-62
2024/03/12 08:18:29;;;;;;;65.70;31.87;;;7.30;99.90;;;;;;5014350;28;20662;-63
2024/03/12 08:20:57;;;;;;;66.20;30.20;;;7.30;99.90;;;;;;5008175;28;20228;-62
2024/03/12 08:23:29;;;;;;;72.33;30.07;;;7.40;99.90;;;;;;5008321;28;20209;-63
2024/03/12 08:25:59;;;;;;;61.93;28.87;;;7.40;99.90;;;;;;5011458;28;20190;-62
2024/03/12 08:28:30;;;;;;;65.03;29.80;;;7.40;99.90;;;;;;5009230;28;20221;-62
2024/03/12 08:30:59;;;;;;;69.17;30.37;;;7.40;99.90;;;;;;5008328;28;20218;-62
2024/03/12 08:33:41;;;;;;;70.43;31.00;;;7.50;99.90;;;;;;5008457;28;20684;-63
2024/03/12 08:36:10;;;;;;;71.80;31.53;;;7.60;99.90;;;;;;5010371;28;20305;-62
2024/03/12 08:38:39;;;;;;;67.50;29.77;;;7.60;99.90;;;;;;5009705;28;20201;-62
2024/03/12 08:41:10;;;;;;;69.70;31.90;;;7.70;99.90;;;;;;5008654;28;20276;-61
2024/03/12 08:43:38;;;;;;;66.23;30.50;;;7.80;99.90;;;;;;5011105;28;20225;-63
2024/03/12 08:46:07;;;;;;;64.03;29.70;;;7.90;99.90;;;;;;5009933;28;20226;-63
2024/03/12 08:48:36;;;;;;;63.40;29.53;;;8.10;99.90;;;;;;5007951;28;20708;-62
2024/03/12 08:51:05;;;;;;;60.47;30.30;;;8.20;99.90;;;;;;5010706;28;20790;-62
2024/03/12 08:53:34;;;;;;;63.97;29.03;;;8.30;99.90;;;;;;5010070;28;20198;-62
2024/03/12 08:56:03;;;;;;;66.07;29.43;;;8.30;99.90;;;;;;5015617;28;20296;-62
2024/03/12 08:58:33;;;;;;;67.97;31.13;;;8.30;99.90;;;;;;5010057;28;20769;-62
2024/03/12 09:01:02;;;;;;;60.50;29.03;;;8.40;99.90;;;;;;5009889;28;20214;-63
2024/03/12 09:03:30;;;;;;;62.17;28.10;;;8.50;99.90;;;;;;5008198;28;20228;-62
2024/03/12 09:06:01;;;;;;;59.70;29.07;;;8.60;99.90;;;;;;5009753;28;20305;-62
2024/03/12 09:08:29;;;;;;;66.23;30.60;;;8.70;99.90;;;;;;5008727;28;20482;-62
2024/03/12 09:10:58;;;;;;;59.37;29.10;;;8.80;99.90;;;;;;5009881;28;20230;-62
2024/03/12 09:13:26;;;;;;;60.40;29.47;;;9.00;99.90;;;;;;5007862;28;20218;-62
2024/03/12 09:15:57;;;;;;;63.70;28.50;;;9.30;99.90;;;;;;5009332;28;20222;-62
2024/03/12 09:18:25;;;;;;;62.67;28.67;;;9.30;99.90;;;;;;5008930;28;20611;-62
2024/03/12 09:20:55;;;;;;;61.83;28.23;;;9.40;99.90;;;;;;5007592;28;20697;-62
2024/03/12 09:23:28;;;;;;;59.97;28.87;;;9.50;99.90;;;;;;5009773;28;20225;-62
2024/03/12 09:25:57;;;;;;;61.20;29.93;;;9.50;99.90;;;;;;5008805;28;20218;-62
2024/03/12 09:28:27;;;;;;;64.43;28.73;;;9.70;99.90;;;;;;5009753;28;20708;-62
2024/03/12 09:30:56;;;;;;;56.73;28.53;;;9.70;99.90;;;;;;5007354;28;20221;-62
2024/03/12 09:33:25;;;;;;;62.03;29.47;;;9.90;99.90;;;;;;5015538;28;20870;-62
2024/03/12 09:35:54;;;;;;;59.93;28.63;;;10.00;99.90;;;;;;5014635;28;20249;-63
2024/03/12 09:38:22;;;;;;;67.10;30.67;;;10.20;99.90;;;;;;5014295;28;20190;-63
2024/03/12 09:40:53;;;;;;;70.90;29.77;;;10.20;99.90;;;;;;5015203;28;20218;-62
2024/03/12 09:43:24;;;;;;;64.97;30.50;;;10.20;99.90;;;;;;5014399;28;20237;-62
2024/03/12 09:45:52;;;;;;;72.53;31.57;;;10.30;99.90;;;;;;5015460;28;20241;-63
2024/03/12 09:48:22;;;;;;;77.37;31.57;;;10.30;99.90;;;;;;5009858;28;20234;-62
2024/03/12 09:50:51;;;;;;;71.77;31.80;;;10.20;99.90;;;;;;5024340;28;22522;-62
2024/03/12 09:53:21;;;;;;;66.03;31.80;;;10.30;99.90;;;;;;5014872;28;20297;-62
2024/03/12 09:55:50;;;;;;;71.67;31.90;;;10.10;99.90;;;;;;5013358;28;20700;-63
2024/03/12 09:58:18;;;;;;;70.00;31.97;;;10.00;99.90;;;;;;5011316;28;20577;-62
2024/03/12 10:00:47;;;;;;;72.40;34.47;;;10.00;99.90;;;;;;5015013;28;20276;-62
2024/03/12 10:03:18;;;;;;;75.87;32.63;;;10.10;99.90;;;;;;5014737;28;20241;-63
2024/03/12 10:05:48;;;;;;;80.13;35.07;;;10.10;99.90;;;;;;5011109;28;20221;-62
2024/03/12 10:08:17;;;;;;;77.17;34.17;;;10.10;99.90;;;;;;5017520;28;20194;-62
2024/03/12 10:10:47;;;;;;;76.83;35.00;;;10.20;99.90;;;;;;5015811;28;20822;-62
2024/03/12 10:13:17;;;;;;;89.03;37.73;;;10.30;99.90;;;;;;5015371;28;20269;-62
2024/03/12 10:15:51;;;;;;;76.27;35.83;;;10.40;99.90;;;;;;5012773;28;20234;-62
2024/03/12 10:18:21;;;;;;;76.00;35.47;;;10.40;99.90;;;;;;5014535;28;20226;-63
2024/03/12 10:20:54;;;;;;;74.83;33.33;;;10.40;99.90;;;;;;5013768;28;20218;-62
2024/03/12 10:23:25;;;;;;;81.50;37.30;;;10.40;99.90;;;;;;5014846;28;20190;-62
2024/03/12 10:25:56;;;;;;;79.10;35.47;;;10.40;99.90;;;;;;5014064;28;20244;-62
2024/03/12 10:28:29;;;;;;;77.43;35.40;;;10.30;99.90;;;;;;5012170;28;20561;-62
2024/03/12 10:31:08;;;;;;;76.50;35.07;;;10.40;99.90;;;;;;5013568;28;20225;-62
2024/03/12 10:33:42;;;;;;;80.60;35.50;;;10.50;99.90;;;;;;5010105;28;20747;-61
2024/03/12 10:36:12;;;;;;;78.20;34.13;;;10.70;99.90;;;;;;5012169;28;20228;-63
2024/03/12 10:38:42;;;;;;;69.27;34.10;;;10.90;99.90;;;;;;5011299;28;20322;-62
2024/03/12 10:41:16;;;;;;;71.63;33.53;;;11.00;99.90;;;;;;5012360;28;20221;-62
2024/03/12 10:43:47;;;;;;;71.57;34.03;;;11.20;99.90;;;;;;5011148;28;21030;-63
2024/03/12 10:46:16;;;;;;;65.40;31.50;;;11.30;99.90;;;;;;5010377;28;20217;-62
2024/03/12 10:48:46;;;;;;;68.83;31.50;;;11.40;99.90;;;;;;5009253;28;20316;-62
2024/03/12 10:51:17;;;;;;;63.17;30.77;;;11.60;99.90;;;;;;5028311;28;20289;-63
2024/03/12 10:53:49;;;;;;;62.43;30.13;;;11.60;99.90;;;;;;5013576;28;20349;-62
2024/03/12 10:56:18;;;;;;;64.13;32.03;;;11.60;99.90;;;;;;5012761;28;20194;-62
2024/03/12 10:58:48;;;;;;;67.77;31.93;;;11.70;99.90;;;;;;5013832;28;20230;-62
2024/03/12 11:01:18;;;;;;;61.43;31.07;;;11.60;99.90;;;;;;5014632;28;20225;-63
2024/03/12 11:03:49;;;;;;;62.50;29.53;;;11.50;99.90;;;;;;5012450;28;20214;-62
2024/03/12 11:06:24;;;;;;;62.63;29.80;;;11.60;99.90;;;;;;5009941;28;20275;-62
2024/03/12 11:08:52;;;;;;;55.80;29.10;;;11.70;99.90;;;;;;5012282;28;20218;-62
2024/03/12 11:11:21;;;;;;;63.13;30.03;;;11.60;99.90;;;;;;5009898;28;20234;-61
2024/03/12 11:13:53;;;;;;;57.10;28.63;;;11.60;99.90;;;;;;5012240;28;20218;-62
2024/03/12 11:16:23;;;;;;;59.17;28.93;;;11.70;99.90;;;;;;5013497;28;20222;-62
2024/03/12 11:18:54;;;;;;;57.23;27.33;;;11.80;99.90;;;;;;5008809;28;20697;-62
2024/03/12 11:21:34;;;;;;;49.30;26.00;;;11.80;99.90;;;;;;5014136;28;20222;-63
2024/03/12 11:24:03;;;;;;;47.30;24.33;;;11.90;99.90;;;;;;5011690;28;20224;-62
2024/03/12 11:26:35;;;;;;;52.93;24.73;;;11.80;99.90;;;;;;5013156;28;20205;-62
2024/03/12 11:29:04;;;;;;;48.00;24.83;;;11.60;99.90;;;;;;5012018;28;20253;-62
2024/03/12 11:31:36;;;;;;;53.03;24.80;;;11.50;99.90;;;;;;5012149;28;20233;-62
2024/03/12 11:34:05;;;;;;;45.37;21.93;;;11.50;99.90;;;;;;5009840;28;20240;-63
2024/03/12 11:36:45;;;;;;;46.77;23.03;;;11.40;99.90;;;;;;5012662;28;20233;-62
2024/03/12 11:39:15;;;;;;;47.10;24.30;;;11.40;99.90;;;;;;5008948;28;20607;-63
2024/03/12 11:42:14;;;;;;;48.67;23.10;;;11.40;99.90;;;;;;5012531;28;20220;-62
2024/03/12 11:44:47;;;;;;;47.10;22.40;;;11.40;99.90;;;;;;5011102;28;20225;-62
2024/03/12 11:47:31;;;;;;;41.80;22.77;;;11.30;99.90;;;;;;5009493;28;20202;-62
2024/03/12 11:50:01;;;;;;;41.13;22.40;;;11.20;99.90;;;;;;5012006;28;20217;-62
2024/03/12 11:52:33;;;;;;;44.23;23.20;;;11.20;99.90;;;;;;5026842;28;20321;-62
2024/03/12 11:55:03;;;;;;;46.03;23.00;;;11.30;99.90;;;;;;5011085;28;20309;-61
2024/03/12 11:57:34;;;;;;;40.80;22.00;;;11.20;99.90;;;;;;5012043;28;20221;-63
2024/03/12 12:00:09;;;;;;;39.33;21.53;;;11.10;99.90;;;;;;5011691;28;20248;-62
2024/03/12 12:02:43;;;;;;;39.20;21.77;;;11.00;99.90;;;;;;5011691;28;20624;-63
2024/03/12 12:05:13;;;;;;;44.03;22.97;;;11.00;99.90;;;;;;5013009;28;20289;-61
2024/03/12 12:07:44;;;;;;;39.17;21.73;;;10.90;99.90;;;;;;5009250;28;20218;-62
2024/03/12 12:10:12;;;;;;;40.73;22.93;;;10.80;99.90;;;;;;5013047;28;20224;-62
2024/03/12 12:12:41;;;;;;;45.07;21.87;;;10.80;99.90;;;;;;5011900;28;20233;-62
2024/03/12 12:15:12;;;;;;;38.60;20.70;;;10.90;99.90;;;;;;5011868;28;20230;-62
2024/03/12 12:17:42;;;;;;;39.03;20.00;;;10.80;99.90;;;;;;5011760;28;20190;-62
2024/03/12 12:20:15;;;;;;;35.57;18.97;;;10.90;99.90;;;;;;5011521;28;20201;-62
2024/03/12 12:22:47;;;;;;;32.37;19.30;;;10.80;99.90;;;;;;5011044;28;20632;-62
2024/03/12 12:25:18;;;;;;;37.63;18.97;;;10.70;99.90;;;;;;5011353;28;20243;-61
2024/03/12 12:27:47;;;;;;;36.77;20.03;;;10.70;99.90;;;;;;5012036;28;20268;-62
2024/03/12 12:30:19;;;;;;;34.93;19.00;;;10.70;99.90;;;;;;5012290;28;20222;-62
2024/03/12 12:32:50;;;;;;;40.60;20.37;;;10.60;99.90;;;;;;5007919;28;20225;-62
2024/03/12 12:35:20;;;;;;;39.00;19.53;;;10.60;99.90;;;;;;5013159;28;20664;-63
2024/03/12 12:37:51;;;;;;;42.03;18.87;;;10.50;99.90;;;;;;5005904;28;20225;-62
2024/03/12 12:40:20;;;;;;;41.67;17.83;;;10.60;99.90;;;;;;5008439;28;20748;-61
2024/03/12 12:42:51;;;;;;;37.03;18.00;;;10.50;99.90;;;;;;5011114;28;20222;-62
2024/03/12 12:45:20;;;;;;;32.87;17.57;;;10.60;99.90;;;;;;5006403;28;20218;-62
2024/03/12 12:47:49;;;;;;;37.57;19.10;;;10.70;99.90;;;;;;5009150;28;20229;-62
2024/03/12 12:50:29;;;;;;;32.40;19.33;;;10.60;99.90;;;;;;5012808;28;20645;-62
2024/03/12 12:53:02;;;;;;;35.93;18.73;;;10.60;99.90;;;;;;5011458;28;20239;-63